sensor_id;sensor_type;location;lat;lon;timestamp;noise_LAeq;noise_LA_min;noise_LA_max;noise_LA01;noise_LA95
69670;Laerm;66535;52.370;4.832;2024-03-29T00:00:00;53.32;46.10;68.07;;
69670;Laerm;66535;52.370;4.832;2024-03-29T00:00:31;56.97;45.56;70.06;;
69670;Laerm;66535;52.370;4.832;2024-03-29T00:01:03;48.17;45.01;60.56;;
69670;Laerm;66535;52.370;4.832;2024-03-29T00:01:34;46.32;43.54;56.34;;
69670;Laerm;66535;52.370;4.832;2024-03-29T00:02:05;47.95;44.29;56.84;;
69670;Laerm;66535;52.370;4.832;2024-03-29T00:02:37;47.30;44.66;61.81;;
69670;Laerm;66535;52.370;4.832;2024-03-29T00:03:08;46.19;42.57;55.94;;
69670;Laerm;66535;52.370;4.832;2024-03-29T00:03:40;44.78;42.05;54.79;;
69670;Laerm;66535;52.370;4.832;2024-03-29T00:04:11;45.10;42.90;56.78;;
69670;Laerm;66535;52.370;4.832;2024-03-29T00:04:42;45.25;42.26;54.76;;
69670;Laerm;66535;52.370;4.832;2024-03-29T00:05:14;45.80;42.14;50.68;;
69670;Laerm;66535;52.370;4.832;2024-03-29T00:06:04;46.07;43.21;56.55;;
69670;Laerm;66535;52.370;4.832;2024-03-29T00:06:35;47.01;43.07;56.78;;
69670;Laerm;66535;52.370;4.832;2024-03-29T00:07:07;51.49;45.99;58.17;;
69670;Laerm;66535;52.370;4.832;2024-03-29T00:07:38;50.26;44.94;64.67;;
69670;Laerm;66535;52.370;4.832;2024-03-29T00:08:10;45.60;43.48;53.57;;
69670;Laerm;66535;52.370;4.832;2024-03-29T00:08:41;44.36;40.96;54.47;;
69670;Laerm;66535;52.370;4.832;2024-03-29T00:09:13;44.73;41.95;52.46;;
69670;Laerm;66535;52.370;4.832;2024-03-29T00:09:44;47.28;43.63;53.78;;
69670;Laerm;66535;52.370;4.832;2024-03-29T00:10:15;46.90;42.86;57.46;;
69670;Laerm;66535;52.370;4.832;2024-03-29T00:10:46;50.40;42.64;70.48;;
69670;Laerm;66535;52.370;4.832;2024-03-29T00:11:18;47.36;43.19;56.15;;
69670;Laerm;66535;52.370;4.832;2024-03-29T00:11:49;45.01;42.73;55.88;;
69670;Laerm;66535;52.370;4.832;2024-03-29T00:12:20;45.54;43.30;52.95;;
69670;Laerm;66535;52.370;4.832;2024-03-29T00:13:12;44.67;42.36;57.58;;
69670;Laerm;66535;52.370;4.832;2024-03-29T00:13:43;48.16;43.35;60.00;;
69670;Laerm;66535;52.370;4.832;2024-03-29T00:14:15;47.50;44.51;50.89;;
69670;Laerm;66535;52.370;4.832;2024-03-29T00:14:47;47.09;44.07;54.89;;
69670;Laerm;66535;52.370;4.832;2024-03-29T00:15:18;46.58;43.40;65.02;;
69670;Laerm;66535;52.370;4.832;2024-03-29T00:15:49;44.72;41.97;58.53;;
69670;Laerm;66535;52.370;4.832;2024-03-29T00:16:20;44.58;42.10;54.17;;
69670;Laerm;66535;52.370;4.832;2024-03-29T00:16:52;56.15;42.37;72.87;;
69670;Laerm;66535;52.370;4.832;2024-03-29T00:17:24;50.07;42.04;57.70;;
69670;Laerm;66535;52.370;4.832;2024-03-29T00:17:55;45.12;42.20;54.61;;
69670;Laerm;66535;52.370;4.832;2024-03-29T00:18:26;44.72;42.15;51.70;;
69670;Laerm;66535;52.370;4.832;2024-03-29T00:18:57;44.70;42.33;54.46;;
69670;Laerm;66535;52.370;4.832;2024-03-29T00:19:29;50.02;43.26;57.65;;
69670;Laerm;66535;52.370;4.832;2024-03-29T00:20:00;46.73;41.34;57.44;;
69670;Laerm;66535;52.370;4.832;2024-03-29T00:20:31;45.21;41.30;53.94;;
69670;Laerm;66535;52.370;4.832;2024-03-29T00:21:03;46.73;44.32;54.76;;
69670;Laerm;66535;52.370;4.832;2024-03-29T00:21:34;44.77;41.85;58.98;;
69670;Laerm;66535;52.370;4.832;2024-03-29T00:22:06;46.05;40.81;52.89;;
69670;Laerm;66535;52.370;4.832;2024-03-29T00:22:37;44.23;41.00;51.40;;
69670;Laerm;66535;52.370;4.832;2024-03-29T00:23:09;46.03;43.21;55.31;;
69670;Laerm;66535;52.370;4.832;2024-03-29T00:23:40;46.11;42.98;53.58;;
69670;Laerm;66535;52.370;4.832;2024-03-29T00:24:12;50.67;44.18;60.31;;
69670;Laerm;66535;52.370;4.832;2024-03-29T00:24:43;44.45;42.38;50.46;;
69670;Laerm;66535;52.370;4.832;2024-03-29T00:25:15;45.29;42.37;53.39;;
69670;Laerm;66535;52.370;4.832;2024-03-29T00:25:47;45.49;42.38;55.61;;
69670;Laerm;66535;52.370;4.832;2024-03-29T00:26:18;44.71;42.11;51.62;;
69670;Laerm;66535;52.370;4.832;2024-03-29T00:26:51;44.65;41.81;54.85;;
69670;Laerm;66535;52.370;4.832;2024-03-29T00:27:22;44.33;41.09;49.01;;
69670;Laerm;66535;52.370;4.832;2024-03-29T00:27:54;44.36;42.14;52.99;;
69670;Laerm;66535;52.370;4.832;2024-03-29T00:28:25;46.08;42.95;55.23;;
69670;Laerm;66535;52.370;4.832;2024-03-29T00:28:56;46.17;42.41;52.32;;
69670;Laerm;66535;52.370;4.832;2024-03-29T00:29:29;44.64;42.35;48.32;;
69670;Laerm;66535;52.370;4.832;2024-03-29T00:30:00;45.43;42.28;55.51;;
69670;Laerm;66535;52.370;4.832;2024-03-29T00:30:32;45.42;41.95;58.89;;
69670;Laerm;66535;52.370;4.832;2024-03-29T00:31:03;44.99;41.48;58.82;;
69670;Laerm;66535;52.370;4.832;2024-03-29T00:31:35;43.35;41.09;53.60;;
69670;Laerm;66535;52.370;4.832;2024-03-29T00:32:07;44.06;41.71;51.72;;
69670;Laerm;66535;52.370;4.832;2024-03-29T00:32:38;48.25;44.26;54.36;;
69670;Laerm;66535;52.370;4.832;2024-03-29T00:33:09;46.14;41.59;54.13;;
69670;Laerm;66535;52.370;4.832;2024-03-29T00:33:40;43.93;41.27;51.34;;
69670;Laerm;66535;52.370;4.832;2024-03-29T00:34:12;44.27;41.72;50.17;;
69670;Laerm;66535;52.370;4.832;2024-03-29T00:34:43;44.35;41.27;49.81;;
69670;Laerm;66535;52.370;4.832;2024-03-29T00:35:14;43.27;40.54;54.85;;
69670;Laerm;66535;52.370;4.832;2024-03-29T00:35:46;42.83;39.63;48.81;;
69670;Laerm;66535;52.370;4.832;2024-03-29T00:36:17;42.21;39.85;49.06;;
69670;Laerm;66535;52.370;4.832;2024-03-29T00:36:48;45.02;39.97;53.26;;
69670;Laerm;66535;52.370;4.832;2024-03-29T00:37:20;44.46;40.32;52.36;;
69670;Laerm;66535;52.370;4.832;2024-03-29T00:37:51;43.64;41.26;53.88;;
69670;Laerm;66535;52.370;4.832;2024-03-29T00:38:22;45.40;42.66;52.14;;
69670;Laerm;66535;52.370;4.832;2024-03-29T00:38:53;45.73;42.56;51.66;;
69670;Laerm;66535;52.370;4.832;2024-03-29T00:39:25;45.77;41.79;53.26;;
69670;Laerm;66535;52.370;4.832;2024-03-29T00:39:56;43.42;41.45;51.01;;
69670;Laerm;66535;52.370;4.832;2024-03-29T00:40:27;44.05;40.00;54.66;;
69670;Laerm;66535;52.370;4.832;2024-03-29T00:40:58;45.46;39.77;58.36;;
69670;Laerm;66535;52.370;4.832;2024-03-29T00:41:29;44.11;40.75;54.12;;
69670;Laerm;66535;52.370;4.832;2024-03-29T00:42:01;45.52;40.64;55.66;;
69670;Laerm;66535;52.370;4.832;2024-03-29T00:42:32;47.33;40.40;63.84;;
69670;Laerm;66535;52.370;4.832;2024-03-29T00:43:03;42.58;40.33;50.31;;
69670;Laerm;66535;52.370;4.832;2024-03-29T00:43:35;42.85;40.37;59.13;;
69670;Laerm;66535;52.370;4.832;2024-03-29T00:44:06;42.29;39.49;59.25;;
69670;Laerm;66535;52.370;4.832;2024-03-29T00:44:38;42.17;39.35;53.63;;
69670;Laerm;66535;52.370;4.832;2024-03-29T00:45:10;42.62;39.71;55.79;;
69670;Laerm;66535;52.370;4.832;2024-03-29T00:45:41;43.10;40.51;50.50;;
69670;Laerm;66535;52.370;4.832;2024-03-29T00:46:12;44.88;40.78;57.79;;
69670;Laerm;66535;52.370;4.832;2024-03-29T00:46:44;43.09;39.98;51.97;;
69670;Laerm;66535;52.370;4.832;2024-03-29T00:47:15;46.17;39.45;57.67;;
69670;Laerm;66535;52.370;4.832;2024-03-29T00:47:46;43.84;39.91;63.76;;
69670;Laerm;66535;52.370;4.832;2024-03-29T00:48:17;43.91;39.62;58.81;;
69670;Laerm;66535;52.370;4.832;2024-03-29T00:48:49;42.49;38.77;54.79;;
69670;Laerm;66535;52.370;4.832;2024-03-29T00:49:20;43.54;39.54;52.89;;
69670;Laerm;66535;52.370;4.832;2024-03-29T00:49:51;45.86;39.25;56.30;;
69670;Laerm;66535;52.370;4.832;2024-03-29T00:50:22;41.94;39.06;61.53;;
69670;Laerm;66535;52.370;4.832;2024-03-29T00:50:54;41.80;38.92;50.98;;
69670;Laerm;66535;52.370;4.832;2024-03-29T00:51:25;42.51;39.82;50.02;;
69670;Laerm;66535;52.370;4.832;2024-03-29T00:51:56;44.26;40.59;57.45;;
69670;Laerm;66535;52.370;4.832;2024-03-29T00:52:27;45.68;41.52;54.18;;
69670;Laerm;66535;52.370;4.832;2024-03-29T00:52:59;48.51;42.32;54.58;;
69670;Laerm;66535;52.370;4.832;2024-03-29T00:53:30;43.41;39.72;52.39;;
69670;Laerm;66535;52.370;4.832;2024-03-29T00:54:01;44.56;40.19;54.72;;
69670;Laerm;66535;52.370;4.832;2024-03-29T00:54:33;43.44;40.13;52.76;;
69670;Laerm;66535;52.370;4.832;2024-03-29T00:55:05;46.54;41.13;55.05;;
69670;Laerm;66535;52.370;4.832;2024-03-29T00:55:36;49.97;42.73;58.65;;
69670;Laerm;66535;52.370;4.832;2024-03-29T00:56:07;44.06;41.23;55.10;;
69670;Laerm;66535;52.370;4.832;2024-03-29T00:56:38;42.93;40.44;54.06;;
69670;Laerm;66535;52.370;4.832;2024-03-29T00:57:10;45.68;40.83;54.75;;
69670;Laerm;66535;52.370;4.832;2024-03-29T00:57:41;43.00;40.53;52.64;;
69670;Laerm;66535;52.370;4.832;2024-03-29T00:58:12;45.13;40.21;54.75;;
69670;Laerm;66535;52.370;4.832;2024-03-29T00:58:43;43.44;40.82;54.21;;
69670;Laerm;66535;52.370;4.832;2024-03-29T00:59:15;43.99;40.20;52.07;;
69670;Laerm;66535;52.370;4.832;2024-03-29T00:59:47;43.30;40.55;52.42;;
69670;Laerm;66535;52.370;4.832;2024-03-29T01:00:19;42.56;40.26;53.25;;
69670;Laerm;66535;52.370;4.832;2024-03-29T01:00:50;42.98;40.04;58.92;;
69670;Laerm;66535;52.370;4.832;2024-03-29T01:01:21;43.05;40.08;55.70;;
69670;Laerm;66535;52.370;4.832;2024-03-29T01:01:53;44.47;41.55;52.44;;
69670;Laerm;66535;52.370;4.832;2024-03-29T01:02:24;43.38;40.61;50.95;;
69670;Laerm;66535;52.370;4.832;2024-03-29T01:02:55;45.65;40.88;55.57;;
69670;Laerm;66535;52.370;4.832;2024-03-29T01:03:26;44.96;40.80;53.90;;
69670;Laerm;66535;52.370;4.832;2024-03-29T01:03:58;42.40;39.99;50.84;;
69670;Laerm;66535;52.370;4.832;2024-03-29T01:04:29;43.33;40.13;52.18;;
69670;Laerm;66535;52.370;4.832;2024-03-29T01:05:01;42.39;40.20;46.64;;
69670;Laerm;66535;52.370;4.832;2024-03-29T01:05:32;43.76;39.95;55.37;;
69670;Laerm;66535;52.370;4.832;2024-03-29T01:06:03;42.93;39.63;50.32;;
69670;Laerm;66535;52.370;4.832;2024-03-29T01:06:35;41.75;39.56;55.41;;
69670;Laerm;66535;52.370;4.832;2024-03-29T01:07:06;45.76;40.04;56.09;;
69670;Laerm;66535;52.370;4.832;2024-03-29T01:07:40;45.40;42.09;52.21;;
69670;Laerm;66535;52.370;4.832;2024-03-29T01:08:11;43.30;40.27;51.55;;
69670;Laerm;66535;52.370;4.832;2024-03-29T01:08:42;42.58;39.75;48.34;;
69670;Laerm;66535;52.370;4.832;2024-03-29T01:09:13;44.08;40.29;53.78;;
69670;Laerm;66535;52.370;4.832;2024-03-29T01:09:45;44.10;40.62;51.12;;
69670;Laerm;66535;52.370;4.832;2024-03-29T01:10:16;50.04;42.27;56.17;;
69670;Laerm;66535;52.370;4.832;2024-03-29T01:10:47;46.57;42.12;55.30;;
69670;Laerm;66535;52.370;4.832;2024-03-29T01:11:18;43.20;40.20;49.12;;
69670;Laerm;66535;52.370;4.832;2024-03-29T01:11:50;43.98;40.78;51.46;;
69670;Laerm;66535;52.370;4.832;2024-03-29T01:12:21;47.43;42.66;57.97;;
69670;Laerm;66535;52.370;4.832;2024-03-29T01:12:52;49.31;42.84;56.50;;
69670;Laerm;66535;52.370;4.832;2024-03-29T01:13:24;43.65;40.08;53.93;;
69670;Laerm;66535;52.370;4.832;2024-03-29T01:13:55;44.03;40.87;56.46;;
69670;Laerm;66535;52.370;4.832;2024-03-29T01:14:26;51.36;41.26;61.53;;
69670;Laerm;66535;52.370;4.832;2024-03-29T01:14:59;44.21;39.95;64.11;;
69670;Laerm;66535;52.370;4.832;2024-03-29T01:15:30;44.03;40.36;51.16;;
69670;Laerm;66535;52.370;4.832;2024-03-29T01:16:01;43.77;40.76;56.49;;
69670;Laerm;66535;52.370;4.832;2024-03-29T01:16:33;45.49;42.29;51.90;;
69670;Laerm;66535;52.370;4.832;2024-03-29T01:17:04;44.12;40.82;53.82;;
69670;Laerm;66535;52.370;4.832;2024-03-29T01:17:36;49.68;40.25;56.28;;
69670;Laerm;66535;52.370;4.832;2024-03-29T01:18:07;43.08;39.13;51.75;;
69670;Laerm;66535;52.370;4.832;2024-03-29T01:18:38;47.00;40.53;57.88;;
69670;Laerm;66535;52.370;4.832;2024-03-29T01:19:09;44.48;41.37;49.93;;
69670;Laerm;66535;52.370;4.832;2024-03-29T01:19:41;49.05;41.31;56.83;;
69670;Laerm;66535;52.370;4.832;2024-03-29T01:20:12;42.56;40.20;47.55;;
69670;Laerm;66535;52.370;4.832;2024-03-29T01:20:43;42.84;40.10;52.11;;
69670;Laerm;66535;52.370;4.832;2024-03-29T01:21:15;42.83;40.46;49.78;;
69670;Laerm;66535;52.370;4.832;2024-03-29T01:21:46;43.84;40.27;58.06;;
69670;Laerm;66535;52.370;4.832;2024-03-29T01:22:17;41.97;39.61;47.74;;
69670;Laerm;66535;52.370;4.832;2024-03-29T01:22:48;46.72;40.35;60.86;;
69670;Laerm;66535;52.370;4.832;2024-03-29T01:23:20;42.41;39.17;55.54;;
69670;Laerm;66535;52.370;4.832;2024-03-29T01:23:51;41.13;38.83;50.52;;
69670;Laerm;66535;52.370;4.832;2024-03-29T01:24:22;41.61;38.11;48.90;;
69670;Laerm;66535;52.370;4.832;2024-03-29T01:24:53;41.35;39.40;47.90;;
69670;Laerm;66535;52.370;4.832;2024-03-29T01:25:25;41.65;39.28;52.79;;
69670;Laerm;66535;52.370;4.832;2024-03-29T01:25:56;41.38;39.17;53.08;;
69670;Laerm;66535;52.370;4.832;2024-03-29T01:26:27;41.87;38.98;62.71;;
69670;Laerm;66535;52.370;4.832;2024-03-29T01:26:58;42.57;39.23;57.61;;
69670;Laerm;66535;52.370;4.832;2024-03-29T01:27:30;43.19;40.40;48.58;;
69670;Laerm;66535;52.370;4.832;2024-03-29T01:28:01;42.63;39.56;57.37;;
69670;Laerm;66535;52.370;4.832;2024-03-29T01:28:32;44.18;40.94;51.26;;
69670;Laerm;66535;52.370;4.832;2024-03-29T01:29:04;44.17;39.60;55.36;;
69670;Laerm;66535;52.370;4.832;2024-03-29T01:29:35;43.25;40.13;52.90;;
69670;Laerm;66535;52.370;4.832;2024-03-29T01:30:09;43.31;40.24;53.54;;
69670;Laerm;66535;52.370;4.832;2024-03-29T01:30:40;43.30;40.24;55.78;;
69670;Laerm;66535;52.370;4.832;2024-03-29T01:31:11;43.75;38.91;48.68;;
69670;Laerm;66535;52.370;4.832;2024-03-29T01:31:43;42.28;39.09;51.49;;
69670;Laerm;66535;52.370;4.832;2024-03-29T01:32:14;41.65;39.51;47.37;;
69670;Laerm;66535;52.370;4.832;2024-03-29T01:32:45;41.20;38.95;46.36;;
69670;Laerm;66535;52.370;4.832;2024-03-29T01:33:16;42.79;40.36;48.47;;
69670;Laerm;66535;52.370;4.832;2024-03-29T01:33:49;48.85;40.31;59.02;;
69670;Laerm;66535;52.370;4.832;2024-03-29T01:34:20;45.55;39.89;59.31;;
69670;Laerm;66535;52.370;4.832;2024-03-29T01:34:51;43.30;40.43;46.66;;
69670;Laerm;66535;52.370;4.832;2024-03-29T01:35:22;43.30;40.54;46.30;;
69670;Laerm;66535;52.370;4.832;2024-03-29T01:35:54;45.76;41.80;55.49;;
69670;Laerm;66535;52.370;4.832;2024-03-29T01:36:25;52.22;40.57;59.74;;
69670;Laerm;66535;52.370;4.832;2024-03-29T01:36:56;41.80;39.34;46.89;;
69670;Laerm;66535;52.370;4.832;2024-03-29T01:37:27;41.74;38.54;58.89;;
69670;Laerm;66535;52.370;4.832;2024-03-29T01:37:59;45.20;38.39;52.86;;
69670;Laerm;66535;52.370;4.832;2024-03-29T01:38:30;49.03;40.22;55.78;;
69670;Laerm;66535;52.370;4.832;2024-03-29T01:39:02;41.99;39.68;48.04;;
69670;Laerm;66535;52.370;4.832;2024-03-29T01:39:33;41.86;39.39;45.93;;
69670;Laerm;66535;52.370;4.832;2024-03-29T01:40:05;42.85;39.64;52.88;;
69670;Laerm;66535;52.370;4.832;2024-03-29T01:40:37;42.78;40.39;50.03;;
69670;Laerm;66535;52.370;4.832;2024-03-29T01:41:08;43.18;40.17;54.28;;
69670;Laerm;66535;52.370;4.832;2024-03-29T01:41:39;42.76;40.33;47.71;;
69670;Laerm;66535;52.370;4.832;2024-03-29T01:42:10;41.84;39.53;51.19;;
69670;Laerm;66535;52.370;4.832;2024-03-29T01:42:42;41.96;39.38;48.92;;
69670;Laerm;66535;52.370;4.832;2024-03-29T01:43:13;43.47;40.07;58.90;;
69670;Laerm;66535;52.370;4.832;2024-03-29T01:43:45;41.63;38.92;47.75;;
69670;Laerm;66535;52.370;4.832;2024-03-29T01:44:16;41.21;38.77;47.49;;
69670;Laerm;66535;52.370;4.832;2024-03-29T01:44:48;41.43;39.32;45.19;;
69670;Laerm;66535;52.370;4.832;2024-03-29T01:45:20;41.81;39.27;47.09;;
69670;Laerm;66535;52.370;4.832;2024-03-29T01:45:53;41.21;38.40;56.33;;
69670;Laerm;66535;52.370;4.832;2024-03-29T01:46:25;42.47;39.46;48.81;;
69670;Laerm;66535;52.370;4.832;2024-03-29T01:46:57;42.37;39.84;54.28;;
69670;Laerm;66535;52.370;4.832;2024-03-29T01:47:28;43.85;39.66;52.72;;
69670;Laerm;66535;52.370;4.832;2024-03-29T01:48:00;41.28;38.94;45.15;;
69670;Laerm;66535;52.370;4.832;2024-03-29T01:48:32;41.42;39.01;44.38;;
69670;Laerm;66535;52.370;4.832;2024-03-29T01:49:03;41.27;38.43;47.94;;
69670;Laerm;66535;52.370;4.832;2024-03-29T01:49:35;44.21;39.22;56.43;;
69670;Laerm;66535;52.370;4.832;2024-03-29T01:50:07;42.59;39.78;50.36;;
69670;Laerm;66535;52.370;4.832;2024-03-29T01:50:39;41.84;39.37;46.93;;
69670;Laerm;66535;52.370;4.832;2024-03-29T01:51:11;43.95;41.09;52.54;;
69670;Laerm;66535;52.370;4.832;2024-03-29T01:51:42;41.59;39.34;45.34;;
69670;Laerm;66535;52.370;4.832;2024-03-29T01:52:14;43.07;39.54;51.39;;
69670;Laerm;66535;52.370;4.832;2024-03-29T01:52:47;47.80;40.14;54.79;;
69670;Laerm;66535;52.370;4.832;2024-03-29T01:53:21;43.72;40.32;49.24;;
69670;Laerm;66535;52.370;4.832;2024-03-29T01:53:53;43.38;39.99;53.48;;
69670;Laerm;66535;52.370;4.832;2024-03-29T01:54:25;42.64;40.31;47.11;;
69670;Laerm;66535;52.370;4.832;2024-03-29T01:54:57;42.30;40.04;50.22;;
69670;Laerm;66535;52.370;4.832;2024-03-29T01:55:28;42.32;39.39;46.83;;
69670;Laerm;66535;52.370;4.832;2024-03-29T01:55:59;46.30;41.33;57.62;;
69670;Laerm;66535;52.370;4.832;2024-03-29T01:56:31;42.98;40.07;59.23;;
69670;Laerm;66535;52.370;4.832;2024-03-29T01:57:04;45.59;40.09;54.79;;
69670;Laerm;66535;52.370;4.832;2024-03-29T01:57:36;41.69;38.93;46.03;;
69670;Laerm;66535;52.370;4.832;2024-03-29T01:58:08;41.03;38.96;51.70;;
69670;Laerm;66535;52.370;4.832;2024-03-29T01:58:40;43.55;39.87;51.22;;
69670;Laerm;66535;52.370;4.832;2024-03-29T01:59:14;41.30;39.05;52.80;;
69670;Laerm;66535;52.370;4.832;2024-03-29T01:59:45;42.60;40.22;50.38;;
69670;Laerm;66535;52.370;4.832;2024-03-29T02:00:18;44.98;40.96;51.95;;
69670;Laerm;66535;52.370;4.832;2024-03-29T02:00:52;43.24;39.83;47.93;;
69670;Laerm;66535;52.370;4.832;2024-03-29T02:01:26;42.51;39.41;48.78;;
69670;Laerm;66535;52.370;4.832;2024-03-29T02:01:57;41.77;39.66;48.62;;
69670;Laerm;66535;52.370;4.832;2024-03-29T02:02:29;42.46;38.42;47.99;;
69670;Laerm;66535;52.370;4.832;2024-03-29T02:03:01;40.94;38.52;49.77;;
69670;Laerm;66535;52.370;4.832;2024-03-29T02:03:34;41.34;38.62;48.78;;
69670;Laerm;66535;52.370;4.832;2024-03-29T02:04:06;42.19;39.22;47.96;;
69670;Laerm;66535;52.370;4.832;2024-03-29T02:04:37;42.22;39.63;49.11;;
69670;Laerm;66535;52.370;4.832;2024-03-29T02:05:08;44.32;40.14;51.31;;
69670;Laerm;66535;52.370;4.832;2024-03-29T02:05:41;43.62;39.54;49.53;;
69670;Laerm;66535;52.370;4.832;2024-03-29T02:06:13;42.49;39.43;53.20;;
69670;Laerm;66535;52.370;4.832;2024-03-29T02:06:44;42.78;39.95;49.44;;
69670;Laerm;66535;52.370;4.832;2024-03-29T02:07:15;42.72;39.51;50.02;;
69670;Laerm;66535;52.370;4.832;2024-03-29T02:07:48;41.60;38.23;56.08;;
69670;Laerm;66535;52.370;4.832;2024-03-29T02:08:19;39.92;37.74;46.85;;
69670;Laerm;66535;52.370;4.832;2024-03-29T02:08:52;40.64;37.53;49.60;;
69670;Laerm;66535;52.370;4.832;2024-03-29T02:09:23;41.60;38.49;51.36;;
69670;Laerm;66535;52.370;4.832;2024-03-29T02:09:56;40.74;37.90;52.11;;
69670;Laerm;66535;52.370;4.832;2024-03-29T02:10:27;41.76;38.69;45.73;;
69670;Laerm;66535;52.370;4.832;2024-03-29T02:10:58;43.01;39.60;48.02;;
69670;Laerm;66535;52.370;4.832;2024-03-29T02:11:30;42.31;39.98;46.18;;
69670;Laerm;66535;52.370;4.832;2024-03-29T02:12:01;41.82;39.56;51.18;;
69670;Laerm;66535;52.370;4.832;2024-03-29T02:12:33;42.32;38.87;50.92;;
69670;Laerm;66535;52.370;4.832;2024-03-29T02:13:05;44.55;39.76;52.45;;
69670;Laerm;66535;52.370;4.832;2024-03-29T02:13:36;49.19;39.72;58.47;;
69670;Laerm;66535;52.370;4.832;2024-03-29T02:14:08;41.87;38.80;51.18;;
69670;Laerm;66535;52.370;4.832;2024-03-29T02:14:40;42.84;39.16;51.64;;
69670;Laerm;66535;52.370;4.832;2024-03-29T02:15:14;41.69;39.69;49.45;;
69670;Laerm;66535;52.370;4.832;2024-03-29T02:15:46;43.21;40.31;53.33;;
69670;Laerm;66535;52.370;4.832;2024-03-29T02:16:18;41.94;38.62;51.95;;
69670;Laerm;66535;52.370;4.832;2024-03-29T02:16:50;40.58;38.00;51.49;;
69670;Laerm;66535;52.370;4.832;2024-03-29T02:17:22;41.02;38.51;46.31;;
69670;Laerm;66535;52.370;4.832;2024-03-29T02:17:53;41.31;38.77;47.43;;
69670;Laerm;66535;52.370;4.832;2024-03-29T02:18:24;41.14;38.53;54.59;;
69670;Laerm;66535;52.370;4.832;2024-03-29T02:18:56;40.57;37.47;49.18;;
69670;Laerm;66535;52.370;4.832;2024-03-29T02:19:28;41.84;38.57;46.47;;
69670;Laerm;66535;52.370;4.832;2024-03-29T02:19:59;43.75;38.39;50.82;;
69670;Laerm;66535;52.370;4.832;2024-03-29T02:20:30;40.30;37.95;43.40;;
69670;Laerm;66535;52.370;4.832;2024-03-29T02:21:04;40.10;37.53;43.26;;
69670;Laerm;66535;52.370;4.832;2024-03-29T02:21:37;41.15;38.67;43.41;;
69670;Laerm;66535;52.370;4.832;2024-03-29T02:22:10;41.06;38.55;44.87;;
69670;Laerm;66535;52.370;4.832;2024-03-29T02:22:46;41.25;38.11;50.22;;
69670;Laerm;66535;52.370;4.832;2024-03-29T02:23:19;41.69;38.40;47.17;;
69670;Laerm;66535;52.370;4.832;2024-03-29T02:24:00;39.93;37.44;50.04;;
69670;Laerm;66535;52.370;4.832;2024-03-29T02:24:31;42.10;38.03;48.40;;
69670;Laerm;66535;52.370;4.832;2024-03-29T02:25:03;42.40;37.11;53.56;;
69670;Laerm;66535;52.370;4.832;2024-03-29T02:25:36;41.95;38.27;52.67;;
69670;Laerm;66535;52.370;4.832;2024-03-29T02:26:07;41.74;38.66;49.68;;
69670;Laerm;66535;52.370;4.832;2024-03-29T02:26:39;42.70;38.77;50.92;;
69670;Laerm;66535;52.370;4.832;2024-03-29T02:27:13;40.81;38.64;48.41;;
69670;Laerm;66535;52.370;4.832;2024-03-29T02:27:45;41.26;39.07;48.13;;
69670;Laerm;66535;52.370;4.832;2024-03-29T02:28:17;40.57;38.40;45.10;;
69670;Laerm;66535;52.370;4.832;2024-03-29T02:28:49;40.56;38.29;49.67;;
69670;Laerm;66535;52.370;4.832;2024-03-29T02:29:20;41.18;38.05;55.38;;
69670;Laerm;66535;52.370;4.832;2024-03-29T02:29:52;41.03;38.24;53.05;;
69670;Laerm;66535;52.370;4.832;2024-03-29T02:30:23;39.73;37.33;42.31;;
69670;Laerm;66535;52.370;4.832;2024-03-29T02:30:54;40.32;37.25;47.69;;
69670;Laerm;66535;52.370;4.832;2024-03-29T02:31:26;43.07;38.23;52.36;;
69670;Laerm;66535;52.370;4.832;2024-03-29T02:31:57;40.16;37.90;46.63;;
69670;Laerm;66535;52.370;4.832;2024-03-29T02:32:29;43.97;40.45;50.56;;
69670;Laerm;66535;52.370;4.832;2024-03-29T02:33:01;42.24;38.58;55.88;;
69670;Laerm;66535;52.370;4.832;2024-03-29T02:33:32;40.67;38.03;50.43;;
69670;Laerm;66535;52.370;4.832;2024-03-29T02:34:03;40.63;38.10;47.94;;
69670;Laerm;66535;52.370;4.832;2024-03-29T02:34:34;40.44;37.89;45.71;;
69670;Laerm;66535;52.370;4.832;2024-03-29T02:35:07;42.58;39.39;53.19;;
69670;Laerm;66535;52.370;4.832;2024-03-29T02:35:38;42.59;39.27;54.65;;
69670;Laerm;66535;52.370;4.832;2024-03-29T02:36:10;41.28;38.00;47.46;;
69670;Laerm;66535;52.370;4.832;2024-03-29T02:36:42;47.80;38.06;64.73;;
69670;Laerm;66535;52.370;4.832;2024-03-29T02:37:14;40.90;37.31;50.99;;
69670;Laerm;66535;52.370;4.832;2024-03-29T02:37:46;42.80;39.32;48.59;;
69670;Laerm;66535;52.370;4.832;2024-03-29T02:38:17;41.91;39.26;47.98;;
69670;Laerm;66535;52.370;4.832;2024-03-29T02:38:48;41.66;38.26;45.91;;
69670;Laerm;66535;52.370;4.832;2024-03-29T02:39:21;42.19;38.99;49.15;;
69670;Laerm;66535;52.370;4.832;2024-03-29T02:39:53;41.35;38.39;46.80;;
69670;Laerm;66535;52.370;4.832;2024-03-29T02:40:24;40.84;38.45;50.67;;
69670;Laerm;66535;52.370;4.832;2024-03-29T02:40:56;40.18;37.21;44.32;;
69670;Laerm;66535;52.370;4.832;2024-03-29T02:41:27;40.84;37.88;54.83;;
69670;Laerm;66535;52.370;4.832;2024-03-29T02:42:02;40.18;38.03;52.50;;
69670;Laerm;66535;52.370;4.832;2024-03-29T02:42:33;47.59;38.59;61.33;;
69670;Laerm;66535;52.370;4.832;2024-03-29T02:43:04;44.20;38.84;58.32;;
69670;Laerm;66535;52.370;4.832;2024-03-29T02:43:35;41.66;38.67;53.76;;
69670;Laerm;66535;52.370;4.832;2024-03-29T02:44:07;41.29;39.23;45.25;;
69670;Laerm;66535;52.370;4.832;2024-03-29T02:44:39;42.17;39.53;53.69;;
69670;Laerm;66535;52.370;4.832;2024-03-29T02:45:10;41.63;38.93;45.99;;
69670;Laerm;66535;52.370;4.832;2024-03-29T02:45:41;41.02;38.40;45.86;;
69670;Laerm;66535;52.370;4.832;2024-03-29T02:46:12;40.28;37.71;47.47;;
69670;Laerm;66535;52.370;4.832;2024-03-29T02:46:44;40.62;38.27;48.95;;
69670;Laerm;66535;52.370;4.832;2024-03-29T02:47:16;40.52;37.00;47.44;;
69670;Laerm;66535;52.370;4.832;2024-03-29T02:47:47;40.18;38.06;46.10;;
69670;Laerm;66535;52.370;4.832;2024-03-29T02:48:19;40.12;37.65;50.98;;
69670;Laerm;66535;52.370;4.832;2024-03-29T02:48:50;40.64;37.36;53.42;;
69670;Laerm;66535;52.370;4.832;2024-03-29T02:49:21;48.26;37.63;66.93;;
69670;Laerm;66535;52.370;4.832;2024-03-29T02:49:53;43.84;39.87;51.34;;
69670;Laerm;66535;52.370;4.832;2024-03-29T02:50:25;40.85;38.12;52.10;;
69670;Laerm;66535;52.370;4.832;2024-03-29T02:50:56;39.88;37.88;45.72;;
69670;Laerm;66535;52.370;4.832;2024-03-29T02:51:27;40.59;38.14;44.70;;
69670;Laerm;66535;52.370;4.832;2024-03-29T02:51:59;41.74;38.99;54.49;;
69670;Laerm;66535;52.370;4.832;2024-03-29T02:52:30;47.56;40.94;53.62;;
69670;Laerm;66535;52.370;4.832;2024-03-29T02:53:01;43.34;39.39;48.03;;
69670;Laerm;66535;52.370;4.832;2024-03-29T02:53:34;43.22;40.20;54.00;;
69670;Laerm;66535;52.370;4.832;2024-03-29T02:54:05;41.93;39.53;54.67;;
69670;Laerm;66535;52.370;4.832;2024-03-29T02:54:37;40.94;38.07;49.69;;
69670;Laerm;66535;52.370;4.832;2024-03-29T02:55:09;41.51;37.77;58.13;;
69670;Laerm;66535;52.370;4.832;2024-03-29T02:55:41;40.76;38.04;51.83;;
69670;Laerm;66535;52.370;4.832;2024-03-29T02:56:12;39.89;37.20;47.82;;
69670;Laerm;66535;52.370;4.832;2024-03-29T02:56:45;40.18;37.56;46.29;;
69670;Laerm;66535;52.370;4.832;2024-03-29T02:57:16;40.88;38.73;48.38;;